Time;durP1;ratioP1;P1;durP2;ratioP2;P2;SDS_P1;SDS_P2;PMS_P1;PMS_P2;Temp;Humidity;BMP_temperature;BMP_pressure;BME280_temperature;BME280_humidity;BME280_pressure;Samples;Min_cycle;Max_cycle;Signal;HPM_P1;HPM_P2
2021/08/25 00:01:06;;;;;;;11.55;2.85;;;;;;;13.87;69.69;101060.71;125742;1091;26024;-60
2021/08/25 00:03:38;;;;;;;13.13;2.67;;;;;;;13.87;70.22;101052.29;125855;1091;24309;-58
2021/08/25 00:06:10;;;;;;;9.70;2.30;;;;;;;13.86;69.97;101053.56;125775;1091;22819;-59
2021/08/25 00:08:42;;;;;;;12.40;2.95;;;;;;;13.85;70.27;101054.02;125719;1093;22871;-59
2021/08/25 00:11:14;;;;;;;13.05;2.55;;;;;;;13.83;70.12;101050.92;126000;1093;22889;-61
2021/08/25 00:13:46;;;;;;;11.87;2.60;;;;;;;13.82;70.53;101055.00;125848;1093;24368;-59
2021/08/25 00:16:18;;;;;;;10.50;2.57;;;;;;;13.82;70.04;101057.81;125759;1093;26852;-59
2021/08/25 00:18:50;;;;;;;12.90;2.40;;;;;;;13.80;70.64;101047.83;125916;1093;22856;-62
2021/08/25 00:21:21;;;;;;;12.10;2.65;;;;;;;13.77;70.50;101046.00;125827;1093;22767;-59
2021/08/25 00:23:53;;;;;;;12.60;2.55;;;;;;;13.76;70.44;101052.08;125805;1092;22800;-56
2021/08/25 00:26:26;;;;;;;13.30;2.55;;;;;;;13.69;70.22;101047.64;125800;1093;26331;-59
2021/08/25 00:28:57;;;;;;;12.33;2.97;;;;;;;13.66;70.53;101045.78;125707;1093;22770;-60
2021/08/25 00:31:30;;;;;;;14.35;2.80;;;;;;;13.62;70.94;101045.19;125590;1093;24305;-60
2021/08/25 00:34:02;;;;;;;17.45;3.40;;;;;;;13.58;70.67;101041.02;125834;1092;25967;-58
2021/08/25 00:36:33;;;;;;;12.70;2.60;;;;;;;13.50;70.60;101037.81;125645;1093;22778;-60
2021/08/25 00:39:05;;;;;;;16.65;2.50;;;;;;;13.47;71.06;101029.59;125640;1093;22794;-58
2021/08/25 00:41:37;;;;;;;12.15;2.20;;;;;;;13.45;71.04;101037.72;127862;1093;22804;-60
2021/08/25 00:44:09;;;;;;;12.50;2.00;;;;;;;13.41;70.91;101026.66;125703;1093;22774;-59
2021/08/25 00:46:40;;;;;;;13.30;3.15;;;;;;;13.36;70.76;101024.54;125786;1093;22771;-60
2021/08/25 00:49:12;;;;;;;13.67;2.90;;;;;;;13.33;70.89;101028.28;125719;1093;27670;-60
2021/08/25 00:51:48;;;;;;;13.50;3.20;;;;;;;13.29;70.98;101029.72;125952;1092;22768;-59
2021/08/25 00:54:20;;;;;;;14.10;2.60;;;;;;;13.25;71.17;101027.11;125847;1093;26261;-58
2021/08/25 00:56:52;;;;;;;15.45;3.00;;;;;;;13.21;71.03;101034.92;125753;1093;22811;-60
2021/08/25 00:59:28;;;;;;;10.10;2.50;;;;;;;13.15;71.51;101033.25;125858;1093;26255;-59
2021/08/25 01:02:11;;;;;;;11.43;2.27;;;;;;;13.11;71.53;101030.64;125784;1093;24229;-59
2021/08/25 01:04:52;;;;;;;10.95;2.40;;;;;;;13.09;71.37;101026.75;126111;1093;22927;-60
2021/08/25 01:07:27;;;;;;;11.93;2.50;;;;;;;13.07;71.76;101018.05;125788;1093;27728;-59
2021/08/25 01:10:00;;;;;;;10.20;2.20;;;;;;;13.00;71.48;101031.14;125945;1092;22900;-59
2021/08/25 01:12:31;;;;;;;13.00;2.80;;;;;;;12.96;71.84;101019.34;125898;1093;24439;-59
2021/08/25 01:15:04;;;;;;;12.30;3.00;;;;;;;12.94;72.07;101013.44;125638;1093;22767;-59
2021/08/25 01:17:39;;;;;;;11.70;2.90;;;;;;;12.94;71.85;101018.26;125689;1093;22770;-59
2021/08/25 01:20:15;;;;;;;11.95;2.65;;;;;;;12.89;71.93;101016.88;125741;1093;26522;-58
2021/08/25 01:22:47;;;;;;;12.45;2.40;;;;;;;12.86;71.94;101019.86;125871;1093;22770;-59
2021/08/25 01:25:20;;;;;;;13.90;2.50;;;;;;;12.78;71.98;101029.88;125837;1093;22783;-59
2021/08/25 01:27:57;;;;;;;14.85;2.90;;;;;;;12.68;72.06;101017.92;126161;1093;22774;-60
2021/08/25 01:30:31;;;;;;;15.65;2.90;;;;;;;12.59;72.46;101017.99;125833;1093;27396;-59
2021/08/25 01:33:03;;;;;;;13.37;2.37;;;;;;;12.57;72.54;101025.31;125781;1092;22797;-60
2021/08/25 01:35:35;;;;;;;15.95;2.35;;;;;;;12.55;72.76;101011.78;125879;1092;27670;-59
2021/08/25 01:38:07;;;;;;;14.15;2.85;;;;;;;12.55;72.94;101006.19;125855;1092;23842;-60
2021/08/25 01:40:40;;;;;;;12.55;2.55;;;;;;;12.53;73.02;101005.88;125845;1093;22816;-60
2021/08/25 01:43:14;;;;;;;12.07;2.57;;;;;;;12.51;73.09;101011.19;125796;1093;22834;-59
2021/08/25 01:45:46;;;;;;;12.40;2.63;;;;;;;12.46;73.36;101008.23;125804;1093;22781;-60
2021/08/25 01:48:17;;;;;;;17.40;2.65;;;;;;;12.44;73.66;101007.94;125825;1093;22800;-60
2021/08/25 01:50:52;;;;;;;14.65;3.20;;;;;;;12.40;73.62;101001.73;125756;1092;22775;-61
2021/08/25 01:53:26;;;;;;;11.73;2.30;;;;;;;12.37;73.45;100999.89;125659;1093;22797;-59
2021/08/25 01:55:57;;;;;;;15.20;2.80;;;;;;;12.33;73.59;100991.67;125689;1093;22773;-60
2021/08/25 01:58:29;;;;;;;12.77;2.90;;;;;;;12.29;73.54;100996.64;125692;1093;22793;-60
2021/08/25 02:01:01;;;;;;;13.10;2.50;;;;;;;12.26;73.71;100988.41;125660;1092;25943;-60
2021/08/25 02:03:32;;;;;;;12.37;2.80;;;;;;;12.24;73.86;100994.50;125733;1093;22767;-59
2021/08/25 02:06:05;;;;;;;15.10;2.55;;;;;;;12.23;74.22;100992.93;125787;1093;22752;-60
2021/08/25 02:08:37;;;;;;;11.23;2.70;;;;;;;12.23;74.23;100994.98;125760;1093;22793;-59
2021/08/25 02:11:09;;;;;;;15.47;2.70;;;;;;;12.19;74.37;100993.11;125733;1093;22929;-60
2021/08/25 02:13:41;;;;;;;11.75;2.35;;;;;;;12.15;74.23;100989.70;125677;1093;22769;-58
2021/08/25 02:16:13;;;;;;;10.37;2.30;;;;;;;12.09;74.08;100991.59;125678;1092;22797;-59
2021/08/25 02:18:44;;;;;;;20.53;4.07;;;;;;;12.03;74.34;100979.48;125689;1093;27645;-59
2021/08/25 02:21:16;;;;;;;15.93;2.93;;;;;;;11.98;74.43;100982.91;125656;1093;27214;-59
2021/08/25 02:23:48;;;;;;;11.60;3.00;;;;;;;11.93;74.58;100988.38;125647;1093;26312;-59
2021/08/25 02:26:19;;;;;;;13.20;2.93;;;;;;;11.85;74.54;100982.34;125697;1093;22781;-58
2021/08/25 02:28:55;;;;;;;13.60;2.35;;;;;;;11.80;74.61;100985.77;125649;1092;24471;-59
2021/08/25 02:31:27;;;;;;;15.43;2.97;;;;;;;11.77;74.50;100986.69;125593;1093;22856;-60
2021/08/25 02:34:00;;;;;;;10.77;2.27;;;;;;;11.71;74.83;100977.38;125625;1092;22831;-60
2021/08/25 02:36:31;;;;;;;12.17;2.97;;;;;;;11.66;74.70;100968.82;125879;1093;22770;-59
2021/08/25 02:39:03;;;;;;;13.13;2.50;;;;;;;11.60;73.97;100967.91;125662;1093;22797;-59
2021/08/25 02:41:34;;;;;;;13.50;2.80;;;;;;;11.56;74.28;100962.48;125697;1093;25846;-60
2021/08/25 02:44:07;;;;;;;10.90;2.10;;;;;;;11.50;74.58;100966.37;125764;1093;22920;-59
2021/08/25 02:46:39;;;;;;;11.03;2.47;;;;;;;11.47;74.32;100958.90;125884;1093;24443;-59
2021/08/25 02:49:11;;;;;;;13.33;2.80;;;;;;;11.40;74.67;100959.98;125746;1092;22770;-59
2021/08/25 02:51:43;;;;;;;9.13;2.13;;;;;;;11.33;74.20;100968.71;125945;1093;22773;-60
2021/08/25 02:54:14;;;;;;;12.13;2.10;;;;;;;11.27;74.64;100964.98;125650;1092;27260;-58
2021/08/25 02:56:46;;;;;;;12.03;3.00;;;;;;;11.22;75.26;100965.59;125681;1093;22794;-59
2021/08/25 02:59:19;;;;;;;9.97;1.90;;;;;;;11.18;74.92;100967.77;125699;1093;24467;-60
2021/08/25 03:01:50;;;;;;;8.90;1.93;;;;;;;11.11;75.07;100968.10;125805;1093;22789;-61
2021/08/25 03:04:24;;;;;;;10.55;1.95;;;;;;;11.03;74.86;100959.23;125746;1093;22775;-60
2021/08/25 03:06:57;;;;;;;10.50;1.90;;;;;;;10.96;74.99;100962.34;125757;1092;22855;-60
2021/08/25 03:09:28;;;;;;;11.73;2.23;;;;;;;10.88;75.07;100954.73;125842;1093;22773;-60
2021/08/25 03:12:04;;;;;;;10.33;2.00;;;;;;;10.79;74.83;100952.70;125712;1093;22767;-59
2021/08/25 03:14:36;;;;;;;10.40;2.30;;;;;;;10.74;75.48;100947.71;125790;1093;22770;-59
2021/08/25 03:17:13;;;;;;;14.33;2.33;;;;;;;10.71;75.15;100953.45;125962;1093;27756;-60
2021/08/25 03:19:45;;;;;;;12.00;2.55;;;;;;;10.63;75.48;100950.19;125906;1092;22800;-60
2021/08/25 03:22:16;;;;;;;12.37;2.00;;;;;;;10.58;75.86;100940.41;125830;1093;22797;-59
2021/08/25 03:24:48;;;;;;;10.00;2.00;;;;;;;10.53;75.40;100941.00;126010;1093;25874;-60
2021/08/25 03:27:23;;;;;;;12.90;2.20;;;;;;;10.48;75.28;100944.42;125818;1093;24471;-59
2021/08/25 03:29:54;;;;;;;9.57;2.13;;;;;;;10.43;75.18;100939.43;125772;1093;22767;-60
2021/08/25 03:32:26;;;;;;;10.97;1.97;;;;;;;10.36;75.33;100925.78;125930;1093;22774;-60
2021/08/25 03:34:58;;;;;;;10.10;1.90;;;;;;;10.32;75.45;100924.38;125822;1093;22950;-60
2021/08/25 03:37:29;;;;;;;10.80;2.10;;;;;;;10.27;75.18;100922.95;125985;1093;22818;-59
2021/08/25 03:40:02;;;;;;;10.23;2.23;;;;;;;10.23;74.86;100922.33;125635;1093;22770;-59
2021/08/25 03:42:33;;;;;;;10.30;1.80;;;;;;;10.18;75.26;100931.28;125732;1092;22924;-59
2021/08/25 03:45:08;;;;;;;8.90;2.00;;;;;;;10.12;75.36;100923.97;125877;1091;22803;-57
2021/08/25 03:47:39;;;;;;;8.95;1.70;;;;;;;10.07;75.31;100919.77;125815;1092;22799;-58
2021/08/25 03:50:12;;;;;;;11.53;1.87;;;;;;;10.02;75.38;100923.14;125811;1093;22770;-56
2021/08/25 03:52:43;;;;;;;10.00;1.97;;;;;;;9.98;75.35;100922.50;125866;1092;27570;-60
2021/08/25 03:55:15;;;;;;;13.60;2.00;;;;;;;9.96;75.56;100924.19;125792;1093;22800;-59
2021/08/25 03:57:46;;;;;;;9.60;1.80;;;;;;;9.92;75.87;100927.13;126031;1093;22811;-58
2021/08/25 04:00:19;;;;;;;12.20;2.50;;;;;;;9.87;75.68;100924.92;125741;1092;22854;-57
2021/08/25 04:02:51;;;;;;;9.75;2.00;;;;;;;9.84;75.48;100923.06;125818;1093;22794;-58
2021/08/25 04:05:22;;;;;;;10.85;1.90;;;;;;;9.78;75.64;100917.32;125825;1093;24432;-60
2021/08/25 04:07:54;;;;;;;10.83;1.70;;;;;;;9.75;76.40;100921.01;125964;1093;23378;-61
2021/08/25 04:10:26;;;;;;;9.85;1.90;;;;;;;9.73;76.85;100914.33;125728;1092;24477;-59
2021/08/25 04:12:59;;;;;;;10.13;1.90;;;;;;;9.73;76.71;100912.33;125834;1093;22767;-58
2021/08/25 04:15:37;;;;;;;10.00;2.00;;;;;;;9.73;76.83;100912.33;126007;1092;22957;-59
2021/08/25 04:18:09;;;;;;;13.67;1.87;;;;;;;9.71;76.60;100914.01;125920;1093;22820;-61
2021/08/25 04:20:40;;;;;;;9.03;1.37;;;;;;;9.69;76.85;100917.26;125836;1093;22968;-61
2021/08/25 04:23:12;;;;;;;8.43;1.40;;;;;;;9.69;77.06;100910.91;125919;1093;24432;-60
2021/08/25 04:25:44;;;;;;;9.50;1.60;;;;;;;9.68;76.77;100912.16;125809;1092;26025;-58
2021/08/25 04:28:52;;;;;;;7.20;1.60;;;;;;;9.71;77.01;100908.26;110327;1221;545711;-58
2021/08/25 04:31:23;;;;;;;7.80;1.80;;;;;;;9.69;76.85;100908.02;111532;1205;25142;-60
2021/08/25 04:33:54;;;;;;;8.30;1.70;;;;;;;9.69;76.94;100906.29;111651;1203;25054;-59
2021/08/25 04:36:27;;;;;;;9.20;1.70;;;;;;;9.70;77.10;100908.40;111602;1203;22467;-61
2021/08/25 04:38:58;;;;;;;7.70;1.80;;;;;;;9.72;77.12;100909.43;111590;1203;26402;-56
2021/08/25 04:41:30;;;;;;;10.00;1.90;;;;;;;9.74;77.28;100906.16;112133;1200;25119;-59
2021/08/25 04:44:01;;;;;;;7.80;1.40;;;;;;;9.77;77.42;100903.27;111999;1200;22438;-58
2021/08/25 04:46:32;;;;;;;10.00;2.00;;;;;;;9.80;77.61;100902.13;111874;1200;25120;-60
2021/08/25 04:49:04;;;;;;;10.40;1.90;;;;;;;9.85;77.54;100904.02;112171;1200;22418;-60
2021/08/25 04:51:36;;;;;;;10.80;1.60;;;;;;;9.88;77.52;100906.04;112886;1200;25764;-60
2021/08/25 04:54:07;;;;;;;13.70;2.10;;;;;;;9.92;77.60;100907.50;112092;1199;22573;-61
2021/08/25 04:56:40;;;;;;;11.80;2.30;;;;;;;9.97;77.71;100907.41;111834;1199;22430;-61
2021/08/25 04:59:11;;;;;;;11.30;2.10;;;;;;;10.03;77.95;100908.70;111998;1200;22431;-61
2021/08/25 05:01:42;;;;;;;12.40;2.60;;;;;;;10.07;78.12;100910.83;111915;1200;25133;-68
2021/08/25 05:04:13;;;;;;;11.20;2.30;;;;;;;10.15;78.47;100907.68;111833;1200;25171;-61
2021/08/25 05:06:44;;;;;;;12.70;2.60;;;;;;;10.22;78.67;100909.91;111846;1200;22432;-62
2021/08/25 05:09:16;;;;;;;10.10;2.20;;;;;;;10.30;78.77;100906.55;111878;1200;24790;-61
2021/08/25 05:11:47;;;;;;;12.50;2.20;;;;;;;10.38;78.82;100907.27;111881;1199;22553;-61
2021/08/25 05:14:18;;;;;;;9.60;2.20;;;;;;;10.44;78.81;100915.80;112819;1199;22436;-62
2021/08/25 05:16:49;;;;;;;14.20;2.90;;;;;;;10.51;78.90;100906.11;111945;1200;25135;-60
2021/08/25 05:19:20;;;;;;;15.70;2.60;;;;;;;10.58;79.00;100908.35;112119;1200;24861;-60
2021/08/25 05:21:53;;;;;;;15.60;3.30;;;;;;;10.65;78.92;100905.27;112054;1192;25249;-60
2021/08/25 05:24:24;;;;;;;15.60;2.90;;;;;;;10.73;78.99;100903.10;112073;1200;25067;-60
2021/08/25 05:26:56;;;;;;;15.60;3.10;;;;;;;10.82;79.23;100906.54;111978;1199;22432;-61
2021/08/25 05:29:27;;;;;;;12.20;2.70;;;;;;;10.88;79.15;100903.17;111808;1199;22469;-59
2021/08/25 05:32:00;;;;;;;14.00;2.70;;;;;;;10.94;79.27;100901.61;112060;1199;25167;-60
2021/08/25 05:34:31;;;;;;;13.50;2.90;;;;;;;10.98;79.29;100900.15;112069;1199;22453;-61
2021/08/25 05:37:03;;;;;;;12.40;2.30;;;;;;;11.02;79.16;100895.02;112073;1200;22471;-62
2021/08/25 05:39:34;;;;;;;15.90;2.90;;;;;;;11.07;79.21;100896.65;112224;1200;22448;-62
2021/08/25 05:42:05;;;;;;;16.30;2.90;;;;;;;11.11;79.28;100894.33;112129;1200;22578;-62
2021/08/25 05:44:36;;;;;;;14.30;2.80;;;;;;;11.16;79.45;100892.58;112540;1200;25079;-61
2021/08/25 05:47:08;;;;;;;18.70;3.30;;;;;;;11.24;79.50;100891.32;112180;1200;22444;-63
2021/08/25 05:49:39;;;;;;;13.80;3.30;;;;;;;11.30;79.48;100892.87;112413;1200;22487;-63
2021/08/25 05:52:10;;;;;;;14.30;3.10;;;;;;;11.35;79.50;100897.11;112234;1199;22438;-62
2021/08/25 05:54:41;;;;;;;16.00;3.20;;;;;;;11.38;79.46;100896.08;112379;1200;22444;-61
2021/08/25 05:57:12;;;;;;;10.20;2.50;;;;;;;11.44;79.38;100894.24;112320;1200;22386;-61
2021/08/25 05:59:43;;;;;;;13.20;2.70;;;;;;;11.50;79.36;100893.58;112416;1200;22479;-62
2021/08/25 06:02:15;;;;;;;16.70;3.20;;;;;;;11.54;79.61;100892.75;112283;1200;22453;-62
2021/08/25 06:04:49;;;;;;;16.30;3.60;;;;;;;11.59;79.43;100895.54;112312;1200;22455;-60
2021/08/25 06:07:20;;;;;;;12.60;2.90;;;;;;;11.63;79.26;100899.02;112360;1199;25209;-62
2021/08/25 06:09:51;;;;;;;13.60;2.90;;;;;;;11.68;79.27;100905.05;112364;1200;25213;-62
2021/08/25 06:12:21;;;;;;;14.10;3.30;;;;;;;11.73;79.19;100900.84;112232;1199;24719;-61
2021/08/25 06:14:53;;;;;;;14.00;2.50;;;;;;;11.77;79.12;100907.41;112491;1200;22445;-62
2021/08/25 06:17:25;;;;;;;16.30;2.90;;;;;;;11.82;78.98;100908.30;112275;1200;24052;-63
2021/08/25 06:20:17;;;;;;;14.20;3.40;;;;;;;11.91;78.97;100905.09;112363;1200;23789;-61
2021/08/25 06:22:48;;;;;;;15.50;3.50;;;;;;;11.97;79.01;100907.25;112199;1200;25247;-62
2021/08/25 06:25:19;;;;;;;12.50;3.00;;;;;;;12.05;79.08;100902.14;112248;1200;22550;-62
2021/08/25 06:27:50;;;;;;;12.60;2.30;;;;;;;12.16;79.14;100901.63;112589;1199;24037;-62
2021/08/25 06:30:21;;;;;;;12.70;2.40;;;;;;;12.25;78.55;100901.42;112277;1200;25749;-62
2021/08/25 06:32:53;;;;;;;15.70;3.00;;;;;;;12.32;78.61;100902.90;112254;1200;25058;-62
2021/08/25 06:35:24;;;;;;;11.90;2.90;;;;;;;12.42;78.55;100903.84;112343;1200;22452;-62
2021/08/25 06:37:56;;;;;;;16.80;3.30;;;;;;;12.50;78.26;100902.08;112225;1200;24157;-61
2021/08/25 06:40:28;;;;;;;11.00;2.60;;;;;;;12.57;78.20;100894.85;112165;1200;25217;-62
2021/08/25 06:42:59;;;;;;;13.20;2.60;;;;;;;12.63;77.80;100891.27;112236;1200;24564;-62
2021/08/25 06:45:30;;;;;;;17.20;3.30;;;;;;;12.67;77.56;100888.58;112229;1200;22470;-62
2021/08/25 06:48:04;;;;;;;18.20;3.10;;;;;;;12.74;77.38;100886.79;112265;1200;22440;-59
2021/08/25 06:50:35;;;;;;;16.20;3.10;;;;;;;12.80;77.61;100885.27;112202;1200;25139;-64
2021/08/25 06:53:07;;;;;;;11.50;2.40;;;;;;;12.86;77.26;100885.33;112335;1200;22438;-62
2021/08/25 06:55:39;;;;;;;11.80;3.20;;;;;;;12.88;76.65;100878.84;112731;1200;22474;-62
2021/08/25 06:58:11;;;;;;;15.40;2.60;;;;;;;12.91;76.50;100879.88;112466;1199;25118;-62
2021/08/25 07:00:43;;;;;;;14.10;2.20;;;;;;;12.94;76.17;100875.95;112378;1199;25245;-62
2021/08/25 07:03:14;;;;;;;11.90;2.00;;;;;;;12.98;75.91;100870.48;112407;1200;25043;-60
2021/08/25 07:05:47;;;;;;;12.60;2.30;;;;;;;13.02;76.01;100870.81;112185;1200;24142;-62
2021/08/25 07:08:18;;;;;;;13.70;2.50;;;;;;;13.10;75.97;100861.70;112217;1200;22450;-62
2021/08/25 07:10:50;;;;;;;17.40;3.70;;;;;;;13.16;75.63;100860.64;112176;1200;22435;-62
2021/08/25 07:13:21;;;;;;;14.50;2.50;;;;;;;13.22;75.93;100851.67;112422;1200;25200;-63
2021/08/25 07:15:52;;;;;;;12.90;2.50;;;;;;;13.29;75.98;100852.86;112190;1200;24131;-63
2021/08/25 07:18:23;;;;;;;13.20;3.10;;;;;;;13.34;75.49;100856.53;112126;1200;24112;-61
2021/08/25 07:20:54;;;;;;;15.70;3.00;;;;;;;13.38;75.58;100852.88;112225;1200;22459;-62
2021/08/25 07:23:35;;;;;;;12.60;2.60;;;;;;;13.42;75.41;100856.25;112011;1201;25140;-63
2021/08/25 07:26:06;;;;;;;13.10;2.40;;;;;;;13.46;75.01;100850.89;112549;1200;24652;-62
2021/08/25 07:28:37;;;;;;;17.40;3.10;;;;;;;13.51;74.87;100845.86;112850;1200;24090;-62
2021/08/25 07:31:08;;;;;;;13.10;2.70;;;;;;;13.54;74.95;100840.54;112924;1199;22454;-61
2021/08/25 07:33:50;;;;;;;12.60;2.60;;;;;;;13.59;74.94;100836.19;112092;1201;22465;-63
2021/08/25 07:36:21;;;;;;;14.70;2.90;;;;;;;13.64;74.86;100834.65;112169;1201;22899;-63
2021/08/25 07:38:53;;;;;;;12.70;2.50;;;;;;;13.73;74.93;100835.05;112247;1200;22487;-60
2021/08/25 07:41:25;;;;;;;11.10;2.20;;;;;;;13.79;74.52;100830.70;112217;1201;22457;-61
2021/08/25 07:43:59;;;;;;;11.40;2.10;;;;;;;13.84;74.44;100825.72;112260;1201;22441;-63
2021/08/25 07:46:33;;;;;;;13.70;2.50;;;;;;;13.94;74.55;100825.45;112173;1200;22474;-62
2021/08/25 07:49:06;;;;;;;10.90;2.10;;;;;;;14.02;74.08;100823.89;112254;1200;25746;-61
2021/08/25 07:51:38;;;;;;;13.80;2.50;;;;;;;14.08;73.98;100822.35;112449;1200;23711;-62
2021/08/25 07:54:10;;;;;;;13.10;2.40;;;;;;;14.15;73.98;100819.39;112273;1201;24061;-62
2021/08/25 07:56:41;;;;;;;12.50;2.70;;;;;;;14.23;73.64;100817.34;112734;1200;25093;-62
2021/08/25 07:59:12;;;;;;;12.60;2.70;;;;;;;14.29;73.39;100813.20;112187;1192;22420;-60
2021/08/25 08:01:44;;;;;;;10.50;2.40;;;;;;;14.36;73.10;100818.16;112384;1200;22714;-61
2021/08/25 08:04:15;;;;;;;16.10;2.60;;;;;;;14.42;72.82;100816.14;112366;1200;24148;-63
2021/08/25 08:06:46;;;;;;;12.20;2.70;;;;;;;14.47;72.72;100817.07;112356;1201;22445;-62
2021/08/25 08:09:18;;;;;;;11.30;2.40;;;;;;;14.50;72.58;100814.20;112537;1200;22461;-62
2021/08/25 08:11:51;;;;;;;15.40;2.60;;;;;;;14.53;72.34;100809.49;112442;1200;22435;-62
2021/08/25 08:14:23;;;;;;;10.20;2.30;;;;;;;14.59;72.33;100803.02;112405;1199;22452;-61
2021/08/25 08:16:56;;;;;;;12.30;2.70;;;;;;;14.64;72.30;100799.64;112153;1201;22449;-61
2021/08/25 08:19:30;;;;;;;13.30;2.70;;;;;;;14.70;72.13;100801.14;112322;1200;23742;-62
2021/08/25 08:22:03;;;;;;;12.20;2.40;;;;;;;14.77;72.59;100792.34;112417;1201;25189;-62
2021/08/25 08:24:35;;;;;;;13.00;2.60;;;;;;;14.88;72.68;100786.98;112596;1200;25207;-63
2021/08/25 08:27:07;;;;;;;17.10;2.80;;;;;;;15.01;72.49;100783.88;112470;1200;22474;-62
2021/08/25 08:29:38;;;;;;;15.60;3.40;;;;;;;15.13;72.37;100776.64;112233;1200;25085;-60
2021/08/25 08:32:11;;;;;;;14.80;3.10;;;;;;;15.26;71.61;100771.90;112257;1200;25227;-62
2021/08/25 08:34:42;;;;;;;15.20;2.60;;;;;;;15.35;70.56;100767.58;112538;1200;24968;-62
2021/08/25 08:37:15;;;;;;;16.60;3.20;;;;;;;15.38;70.62;100764.58;112320;1200;22482;-63
2021/08/25 08:39:46;;;;;;;13.60;3.30;;;;;;;15.40;70.90;100762.65;112356;1200;25085;-62
2021/08/25 08:42:32;;;;;;;15.50;3.20;;;;;;;15.42;70.38;100762.20;112445;1202;22424;-62
2021/08/25 08:45:07;;;;;;;11.80;2.70;;;;;;;15.39;69.96;100758.39;112397;1201;25202;-62
2021/08/25 08:47:39;;;;;;;12.50;2.90;;;;;;;15.44;69.92;100754.20;112275;1201;26301;-63
2021/08/25 08:50:12;;;;;;;18.60;3.00;;;;;;;15.54;69.54;100753.41;112444;1201;22634;-63
2021/08/25 08:52:43;;;;;;;12.90;2.20;;;;;;;15.62;69.11;100755.92;112401;1201;22569;-62
2021/08/25 08:55:15;;;;;;;13.50;2.30;;;;;;;15.69;68.39;100753.21;112182;1201;22450;-62
2021/08/25 08:57:46;;;;;;;14.70;3.10;;;;;;;15.71;68.13;100742.37;112826;1200;25352;-62
2021/08/25 09:00:18;;;;;;;14.40;3.20;;;;;;;15.73;68.60;100740.70;112414;1200;22458;-62
2021/08/25 09:02:54;;;;;;;14.80;2.50;;;;;;;15.80;67.79;100738.89;112346;1200;24105;-61
2021/08/25 09:05:28;;;;;;;11.60;2.80;;;;;;;15.84;67.01;100738.82;112528;1201;22439;-63
2021/08/25 09:08:02;;;;;;;12.20;2.40;;;;;;;15.92;67.22;100733.33;112395;1201;22533;-60
2021/08/25 09:10:36;;;;;;;13.10;2.80;;;;;;;15.96;66.49;100740.06;112290;1199;22640;-66
2021/08/25 09:13:09;;;;;;;11.10;2.30;;;;;;;15.94;65.98;100734.98;112347;1200;25186;-63
2021/08/25 09:15:44;;;;;;;13.30;3.00;;;;;;;15.91;65.09;100729.95;112355;1201;22437;-62
2021/08/25 09:18:18;;;;;;;11.80;2.70;;;;;;;15.95;65.37;100726.69;112290;1201;22405;-61
2021/08/25 09:20:51;;;;;;;12.40;2.10;;;;;;;16.04;65.12;100719.06;112330;1201;22447;-62
2021/08/25 09:23:25;;;;;;;13.70;2.90;;;;;;;16.13;65.71;100710.08;112310;1201;25429;-62
2021/08/25 09:25:58;;;;;;;11.60;2.30;;;;;;;16.21;64.65;100712.63;112366;1201;23823;-62
2021/08/25 09:28:33;;;;;;;10.40;2.30;;;;;;;16.22;64.42;100709.75;112623;1201;23995;-62
2021/08/25 09:31:07;;;;;;;11.00;2.00;;;;;;;16.20;64.02;100711.55;112424;1201;22493;-59
2021/08/25 09:33:40;;;;;;;11.00;2.20;;;;;;;16.20;64.43;100707.75;112319;1200;26323;-62
2021/08/25 09:36:14;;;;;;;12.20;2.20;;;;;;;16.22;63.83;100706.02;112512;1200;22447;-62
2021/08/25 09:38:56;;;;;;;9.60;2.10;;;;;;;16.18;63.69;100703.02;112365;1202;22543;-62
2021/08/25 09:41:27;;;;;;;10.20;2.10;;;;;;;16.15;62.76;100698.60;112527;1201;22486;-63
2021/08/25 09:44:14;;;;;;;10.20;1.80;;;;;;;16.12;62.48;100688.15;112436;1200;26023;-61
2021/08/25 09:46:52;;;;;;;8.90;1.70;;;;;;;16.21;62.80;100685.46;112278;1202;25136;-61
2021/08/25 09:49:23;;;;;;;12.30;2.40;;;;;;;16.33;61.93;100678.59;112212;1199;22448;-62
2021/08/25 09:51:54;;;;;;;9.60;1.80;;;;;;;16.43;62.18;100674.81;112216;1202;22445;-60
2021/08/25 09:54:27;;;;;;;9.00;2.10;;;;;;;16.55;62.03;100676.58;112343;1201;22447;-62
2021/08/25 09:56:58;;;;;;;12.10;2.20;;;;;;;16.61;61.22;100674.79;112190;1202;24095;-62
2021/08/25 09:59:29;;;;;;;11.10;1.70;;;;;;;16.57;60.89;100674.67;112232;1200;24327;-62
2021/08/25 10:02:02;;;;;;;9.40;1.60;;;;;;;16.49;60.75;100672.73;112277;1200;25306;-62
2021/08/25 10:04:36;;;;;;;9.70;2.00;;;;;;;16.42;61.10;100672.16;112291;1200;25426;-59
2021/08/25 10:07:07;;;;;;;9.90;1.60;;;;;;;16.40;61.09;100667.19;112240;1201;22460;-61
2021/08/25 10:09:39;;;;;;;8.60;1.80;;;;;;;16.46;60.92;100660.95;112311;1202;22445;-61
2021/08/25 10:12:12;;;;;;;9.70;1.80;;;;;;;16.52;59.73;100662.63;112297;1202;23997;-61
2021/08/25 10:14:43;;;;;;;9.40;2.10;;;;;;;16.52;59.90;100656.05;112761;1202;24017;-62
2021/08/25 10:17:41;;;;;;;7.80;1.70;;;;;;;16.48;59.41;100654.08;112154;1201;22447;-62
2021/08/25 10:20:35;;;;;;;10.20;1.90;;;;;;;16.42;59.97;100653.81;112113;1200;22421;-62
2021/08/25 10:23:07;;;;;;;11.50;2.20;;;;;;;16.37;59.88;100643.15;112276;1201;22581;-63
2021/08/25 10:26:08;;;;;;;11.60;2.00;;;;;;;16.39;60.08;100636.39;112174;1201;22441;-62
2021/08/25 10:29:18;;;;;;;;;;;;;;;;;;;;;
2021/08/25 10:32:17;;;;;;;8.60;2.10;;;;;;;16.59;59.39;100619.13;111993;1201;25173;-62
2021/08/25 10:35:21;;;;;;;10.00;2.10;;;;;;;16.76;59.19;100613.48;111977;1200;25037;-61
2021/08/25 10:38:15;;;;;;;10.10;2.10;;;;;;;16.94;58.27;100610.20;111967;1201;22505;-62
2021/08/25 10:40:49;;;;;;;9.30;2.10;;;;;;;17.01;58.01;100604.70;112044;1201;24193;-61
2021/08/25 10:43:43;;;;;;;11.70;2.80;;;;;;;17.07;58.16;100600.23;112249;1200;25054;-62
2021/08/25 10:46:17;;;;;;;9.60;2.00;;;;;;;17.11;58.11;100599.55;112276;1201;25164;-62
2021/08/25 10:49:04;;;;;;;8.20;1.80;;;;;;;17.09;57.13;100594.07;112392;1202;25168;-60
2021/08/25 10:51:41;;;;;;;12.90;2.20;;;;;;;17.12;57.70;100588.31;112007;1201;23131;-62
2021/08/25 10:54:16;;;;;;;11.00;2.30;;;;;;;17.22;57.16;100589.32;112981;1201;24054;-61
2021/08/25 10:56:50;;;;;;;10.90;2.00;;;;;;;17.34;56.91;100578.61;111872;1201;22450;-62
2021/08/25 10:59:25;;;;;;;11.80;2.20;;;;;;;17.42;56.80;100573.16;112260;1200;22862;-62
2021/08/25 11:01:59;;;;;;;10.20;2.30;;;;;;;17.50;57.19;100561.75;112599;1204;22451;-62
2021/08/25 11:04:32;;;;;;;11.80;2.10;;;;;;;17.65;56.30;100561.02;112153;1202;22442;-63
2021/08/25 11:07:06;;;;;;;12.40;2.00;;;;;;;17.70;55.71;100551.25;112099;1203;22745;-62
2021/08/25 11:09:41;;;;;;;8.00;1.70;;;;;;;17.71;56.00;100544.11;111979;1200;22450;-63
2021/08/25 11:12:15;;;;;;;11.00;2.20;;;;;;;17.72;55.40;100540.81;112221;1201;22464;-62
2021/08/25 11:14:52;;;;;;;10.30;1.50;;;;;;;17.68;55.30;100536.33;112077;1201;22559;-63
2021/08/25 11:17:25;;;;;;;9.90;2.20;;;;;;;17.62;55.07;100538.29;112146;1200;22442;-61
2021/08/25 11:19:59;;;;;;;12.00;2.10;;;;;;;17.58;55.13;100531.29;112321;1201;22457;-63
2021/08/25 11:22:33;;;;;;;10.20;2.10;;;;;;;17.57;54.99;100526.52;112776;1202;22452;-62
2021/08/25 11:25:07;;;;;;;8.20;1.80;;;;;;;17.55;54.98;100519.96;112067;1201;23827;-61
2021/08/25 11:27:40;;;;;;;10.00;2.10;;;;;;;17.55;54.33;100519.45;111940;1203;22867;-62
2021/08/25 11:30:21;;;;;;;9.10;1.90;;;;;;;17.53;54.60;100509.14;112025;1205;24063;-61
2021/08/25 11:32:55;;;;;;;13.60;2.50;;;;;;;17.56;54.84;100508.45;112438;1202;22978;-62
2021/08/25 11:35:36;;;;;;;12.30;2.10;;;;;;;17.59;54.92;100502.34;111991;1200;22455;-63
2021/08/25 11:38:09;;;;;;;9.40;2.10;;;;;;;17.66;54.93;100497.98;112065;1200;22546;-62
2021/08/25 11:40:42;;;;;;;12.40;2.60;;;;;;;17.69;54.25;100499.30;112023;1200;24065;-62